Time;durP1;ratioP1;P1;durP2;ratioP2;P2;SDS_P1;SDS_P2;PMS_P1;PMS_P2;Temp;Humidity;BMP_temperature;BMP_pressure;BME280_temperature;BME280_humidity;BME280_pressure;Samples;Min_cycle;Max_cycle;Signal;HPM_P1;HPM_P2
2023/10/23 00:02:18;;;;;;;3.42;1.30;;;;;;;;;;5036951;28;20032;-60
2023/10/23 00:04:44;;;;;;;2.58;1.30;;;;;;;;;;5036183;28;20037;-59
2023/10/23 00:07:09;;;;;;;3.42;1.80;;;;;;;;;;5036974;28;20453;-58
2023/10/23 00:09:35;;;;;;;2.92;1.30;;;;;;;;;;5034595;28;20045;-59
2023/10/23 00:12:01;;;;;;;3.17;1.40;;;;;;;;;;5037940;28;20041;-56
2023/10/23 00:14:26;;;;;;;2.53;1.27;;;;;;;;;;5034833;28;20614;-60
2023/10/23 00:16:52;;;;;;;2.95;1.30;;;;;;;;;;5036143;28;20038;-58
2023/10/23 00:19:17;;;;;;;2.95;1.48;;;;;;;;;;5035621;28;20112;-59
2023/10/23 00:21:44;;;;;;;3.33;1.40;;;;;;;;;;5039501;28;20082;-58
2023/10/23 00:24:10;;;;;;;2.50;1.27;;;;;;;;;;5037914;28;20072;-59
2023/10/23 00:26:35;;;;;;;3.05;1.38;;;;;;;;;;5035079;28;20045;-59
2023/10/23 00:29:01;;;;;;;2.72;1.35;;;;;;;;;;5039056;28;20136;-59
2023/10/23 00:31:27;;;;;;;2.63;1.30;;;;;;;;;;5033707;28;20059;-60
2023/10/23 00:33:53;;;;;;;2.85;1.40;;;;;;;;;;5037364;28;20061;-59
2023/10/23 00:36:19;;;;;;;2.60;1.38;;;;;;;;;;5035710;28;20057;-58
2023/10/23 00:38:44;;;;;;;2.83;1.27;;;;;;;;;;5035953;28;20076;-59
2023/10/23 00:41:10;;;;;;;2.50;1.23;;;;;;;;;;5036206;28;20530;-58
2023/10/23 00:43:35;;;;;;;2.80;1.40;;;;;;;;;;5034646;28;20127;-59
2023/10/23 00:46:03;;;;;;;2.92;1.52;;;;;;;;;;5033829;28;20042;-57
2023/10/23 00:48:29;;;;;;;2.70;1.38;;;;;;;;;;5034775;28;20649;-58
2023/10/23 00:50:56;;;;;;;3.35;1.40;;;;;;;;;;5034943;28;20116;-59
2023/10/23 00:53:25;;;;;;;4.03;1.27;;;;;;;;;;5034700;28;20065;-59
2023/10/23 00:55:51;;;;;;;2.60;1.20;;;;;;;;;;5033946;28;20056;-59
2023/10/23 00:58:17;;;;;;;2.70;1.50;;;;;;;;;;5035170;28;20045;-59
2023/10/23 01:00:46;;;;;;;2.58;1.40;;;;;;;;;;5033958;28;20060;-58
2023/10/23 01:03:12;;;;;;;3.80;1.33;;;;;;;;;;5034561;28;20068;-59
2023/10/23 01:05:37;;;;;;;2.40;1.20;;;;;;;;;;5035892;28;20098;-60
2023/10/23 01:08:03;;;;;;;2.78;1.40;;;;;;;;;;5035635;28;20101;-59
2023/10/23 01:10:29;;;;;;;4.10;1.20;;;;;;;;;;5034314;28;20498;-59
2023/10/23 01:12:54;;;;;;;2.55;1.20;;;;;;;;;;5035061;28;20037;-59
2023/10/23 01:15:20;;;;;;;3.35;1.15;;;;;;;;;;5034534;28;20095;-59
2023/10/23 01:17:45;;;;;;;2.33;1.20;;;;;;;;;;5036268;28;20037;-58
2023/10/23 01:20:12;;;;;;;2.70;1.30;;;;;;;;;;5036908;28;20037;-58
2023/10/23 01:22:37;;;;;;;2.65;1.25;;;;;;;;;;5033052;28;20096;-59
2023/10/23 01:25:08;;;;;;;2.72;1.30;;;;;;;;;;5037969;28;20445;-57
2023/10/23 01:27:33;;;;;;;2.55;1.30;;;;;;;;;;5037013;28;20076;-58
2023/10/23 01:29:59;;;;;;;2.72;1.33;;;;;;;;;;5036784;28;20185;-60
2023/10/23 01:32:25;;;;;;;2.95;1.33;;;;;;;;;;5035017;28;20037;-60
2023/10/23 01:34:50;;;;;;;2.97;1.30;;;;;;;;;;5034575;28;20037;-59
2023/10/23 01:37:16;;;;;;;3.22;1.20;;;;;;;;;;5034122;28;20119;-59
2023/10/23 01:39:41;;;;;;;2.72;1.30;;;;;;;;;;5032625;28;20563;-58
2023/10/23 01:42:07;;;;;;;2.72;1.20;;;;;;;;;;5035619;28;20041;-58
2023/10/23 01:44:33;;;;;;;2.63;1.42;;;;;;;;;;5035756;28;20045;-60
2023/10/23 01:46:58;;;;;;;3.00;1.40;;;;;;;;;;5035406;28;20577;-58
2023/10/23 01:49:24;;;;;;;2.35;1.13;;;;;;;;;;5035843;28;20037;-58
2023/10/23 01:51:49;;;;;;;3.10;1.30;;;;;;;;;;5033475;28;20053;-58
2023/10/23 01:54:15;;;;;;;3.35;1.20;;;;;;;;;;5035612;28;20446;-59
2023/10/23 01:56:40;;;;;;;2.67;1.15;;;;;;;;;;5035237;28;20033;-59
2023/10/23 01:59:06;;;;;;;2.40;1.15;;;;;;;;;;5037683;28;20024;-58
2023/10/23 02:01:33;;;;;;;3.60;1.10;;;;;;;;;;5035115;28;20580;-58
2023/10/23 02:03:59;;;;;;;2.88;1.10;;;;;;;;;;5035234;28;20075;-59
2023/10/23 02:06:25;;;;;;;3.45;1.05;;;;;;;;;;5036191;28;20042;-60
2023/10/23 02:08:50;;;;;;;3.08;1.30;;;;;;;;;;5036981;28;20032;-60
2023/10/23 02:11:16;;;;;;;2.50;1.20;;;;;;;;;;5031940;28;20041;-59
2023/10/23 02:13:42;;;;;;;2.55;1.27;;;;;;;;;;5035237;28;20099;-59
2023/10/23 02:16:07;;;;;;;2.08;0.98;;;;;;;;;;5035699;28;20029;-57
2023/10/23 02:18:33;;;;;;;2.20;1.10;;;;;;;;;;5033969;28;20040;-59
2023/10/23 02:20:58;;;;;;;2.00;1.00;;;;;;;;;;5034525;28;20103;-58
2023/10/23 02:23:24;;;;;;;2.33;1.17;;;;;;;;;;5032622;28;20041;-59
2023/10/23 02:25:49;;;;;;;2.30;1.08;;;;;;;;;;5034161;28;20041;-60
2023/10/23 02:28:16;;;;;;;2.63;1.08;;;;;;;;;;5037183;28;20552;-59
2023/10/23 02:30:41;;;;;;;1.88;0.80;;;;;;;;;;5036762;28;20530;-59
2023/10/23 02:33:07;;;;;;;2.90;1.33;;;;;;;;;;5033947;28;20029;-58
2023/10/23 02:35:34;;;;;;;2.50;1.23;;;;;;;;;;5034814;28;20041;-60
2023/10/23 02:38:00;;;;;;;2.17;1.02;;;;;;;;;;5031788;28;20060;-59
2023/10/23 02:40:25;;;;;;;2.78;1.20;;;;;;;;;;5033893;28;20075;-59
2023/10/23 02:42:51;;;;;;;2.30;1.10;;;;;;;;;;5033156;28;20473;-59
2023/10/23 02:45:17;;;;;;;2.55;1.20;;;;;;;;;;5034573;28;20041;-59
2023/10/23 02:47:43;;;;;;;2.75;1.00;;;;;;;;;;5034735;28;20044;-58
2023/10/23 02:50:09;;;;;;;2.20;1.17;;;;;;;;;;5035495;28;20068;-59
2023/10/23 02:52:35;;;;;;;2.00;1.00;;;;;;;;;;5034030;28;20050;-59
2023/10/23 02:55:00;;;;;;;2.20;1.00;;;;;;;;;;5031782;28;20395;-58
2023/10/23 02:57:26;;;;;;;2.33;1.02;;;;;;;;;;5037088;28;20048;-60
2023/10/23 02:59:52;;;;;;;2.58;1.20;;;;;;;;;;5034190;28;20084;-58
2023/10/23 03:02:18;;;;;;;2.55;1.30;;;;;;;;;;5034472;28;20387;-59
2023/10/23 03:04:43;;;;;;;1.92;0.93;;;;;;;;;;5032179;28;20146;-59
2023/10/23 03:07:09;;;;;;;1.88;0.80;;;;;;;;;;5035707;28;20054;-60
2023/10/23 03:09:35;;;;;;;2.90;1.13;;;;;;;;;;5033209;28;20136;-60
2023/10/23 03:12:00;;;;;;;2.40;0.98;;;;;;;;;;5035790;28;20047;-59
2023/10/23 03:14:26;;;;;;;2.40;0.90;;;;;;;;;;5032214;28;20067;-60
2023/10/23 03:16:51;;;;;;;2.45;1.15;;;;;;;;;;5032668;28;20045;-59
2023/10/23 03:19:18;;;;;;;2.00;0.90;;;;;;;;;;5034248;28;20454;-60
2023/10/23 03:21:44;;;;;;;2.55;1.17;;;;;;;;;;5032335;28;20068;-59
2023/10/23 03:24:09;;;;;;;2.67;1.13;;;;;;;;;;5035900;28;20568;-58
2023/10/23 03:26:35;;;;;;;3.67;1.10;;;;;;;;;;5036176;28;20029;-60
2023/10/23 03:29:01;;;;;;;2.85;1.02;;;;;;;;;;5040612;28;20163;-58
2023/10/23 03:31:26;;;;;;;2.28;1.00;;;;;;;;;;5038723;28;20159;-57
2023/10/23 03:33:52;;;;;;;2.20;0.90;;;;;;;;;;5036496;28;20065;-59
2023/10/23 03:36:17;;;;;;;2.20;1.10;;;;;;;;;;5036118;28;20037;-58
2023/10/23 03:38:43;;;;;;;2.35;1.02;;;;;;;;;;5036104;28;20099;-57
2023/10/23 03:41:09;;;;;;;2.65;1.10;;;;;;;;;;5037461;28;20487;-59
2023/10/23 03:43:34;;;;;;;2.00;0.90;;;;;;;;;;5038691;28;20049;-60
2023/10/23 03:46:03;;;;;;;2.10;1.05;;;;;;;;;;5035798;28;20103;-58
2023/10/23 03:48:29;;;;;;;1.95;0.90;;;;;;;;;;5037121;28;20073;-59
2023/10/23 03:50:58;;;;;;;1.75;0.80;;;;;;;;;;5036252;28;20060;-57
2023/10/23 03:53:23;;;;;;;2.38;1.10;;;;;;;;;;5037388;28;20084;-59
2023/10/23 03:55:49;;;;;;;2.45;0.90;;;;;;;;;;5039004;28;20037;-60
2023/10/23 03:58:14;;;;;;;2.00;0.90;;;;;;;;;;5039089;28;20030;-59
2023/10/23 04:00:40;;;;;;;2.85;1.05;;;;;;;;;;5039100;28;20095;-58
2023/10/23 04:03:05;;;;;;;2.45;1.10;;;;;;;;;;5037505;28;20040;-59
2023/10/23 04:05:31;;;;;;;2.17;1.00;;;;;;;;;;5034958;28;20687;-58
2023/10/23 04:07:57;;;;;;;2.30;1.05;;;;;;;;;;5037503;28;20167;-58
2023/10/23 04:10:22;;;;;;;2.28;0.93;;;;;;;;;;5035171;28;20048;-59
2023/10/23 04:12:48;;;;;;;2.10;1.00;;;;;;;;;;5039362;28;20103;-58
2023/10/23 04:15:14;;;;;;;2.83;0.88;;;;;;;;;;5036078;28;20106;-58
2023/10/23 04:17:39;;;;;;;1.83;0.80;;;;;;;;;;5037391;28;20656;-58
2023/10/23 04:20:05;;;;;;;2.00;1.00;;;;;;;;;;5035721;28;20482;-58
2023/10/23 04:22:31;;;;;;;2.53;0.98;;;;;;;;;;5037167;28;20052;-58
2023/10/23 04:24:56;;;;;;;1.85;0.90;;;;;;;;;;5038347;28;20609;-58
2023/10/23 04:27:22;;;;;;;2.20;0.85;;;;;;;;;;5034398;28;20053;-60
2023/10/23 04:29:47;;;;;;;2.05;0.90;;;;;;;;;;5038495;28;20041;-59
2023/10/23 04:32:13;;;;;;;2.30;1.02;;;;;;;;;;5035871;28;20535;-59
2023/10/23 04:34:38;;;;;;;1.85;0.80;;;;;;;;;;5033104;28;20037;-59
2023/10/23 04:37:04;;;;;;;1.90;0.88;;;;;;;;;;5036022;28;20032;-57
2023/10/23 04:39:30;;;;;;;1.58;0.80;;;;;;;;;;5037096;28;20111;-60
2023/10/23 04:41:55;;;;;;;2.30;1.00;;;;;;;;;;5034897;28;20083;-58
2023/10/23 04:44:22;;;;;;;1.90;1.00;;;;;;;;;;5034961;28;20091;-58
2023/10/23 04:46:48;;;;;;;1.65;0.80;;;;;;;;;;5036496;28;20076;-59
2023/10/23 04:49:13;;;;;;;1.90;0.90;;;;;;;;;;5036449;28;20029;-58
2023/10/23 04:51:39;;;;;;;2.15;0.82;;;;;;;;;;5032614;28;20064;-59
2023/10/23 04:54:05;;;;;;;2.00;0.95;;;;;;;;;;5036013;28;20037;-60
2023/10/23 04:56:30;;;;;;;1.77;0.90;;;;;;;;;;5034473;28;20029;-57
2023/10/23 04:58:56;;;;;;;2.22;0.80;;;;;;;;;;5036108;28;20046;-60
2023/10/23 05:01:22;;;;;;;2.22;0.93;;;;;;;;;;5036258;28;20041;-59
2023/10/23 05:03:48;;;;;;;2.10;0.90;;;;;;;;;;5035210;28;20068;-59
2023/10/23 05:06:13;;;;;;;1.77;0.75;;;;;;;;;;5036175;28;20467;-59
2023/10/23 05:08:39;;;;;;;2.03;0.90;;;;;;;;;;5037722;28;20601;-60
2023/10/23 05:11:05;;;;;;;3.53;1.17;;;;;;;;;;5036902;28;20056;-60
2023/10/23 05:13:31;;;;;;;1.70;0.88;;;;;;;;;;5035980;28;20068;-59
2023/10/23 05:16:06;;;;;;;1.85;0.88;;;;;;;;;;5036686;28;20037;-59
2023/10/23 05:18:32;;;;;;;1.90;0.90;;;;;;;;;;5035742;28;20064;-57
2023/10/23 05:20:58;;;;;;;1.95;0.80;;;;;;;;;;5037355;28;20445;-59
2023/10/23 05:23:24;;;;;;;2.67;0.90;;;;;;;;;;5038404;28;20111;-58
2023/10/23 05:25:49;;;;;;;1.70;0.80;;;;;;;;;;5035914;28;20041;-59
2023/10/23 05:28:15;;;;;;;1.77;0.80;;;;;;;;;;5035766;28;20044;-60
2023/10/23 05:30:40;;;;;;;2.63;0.90;;;;;;;;;;5035928;28;20071;-59
2023/10/23 05:33:06;;;;;;;1.70;0.73;;;;;;;;;;5035284;28;20037;-60
2023/10/23 05:35:32;;;;;;;1.90;0.70;;;;;;;;;;5034579;28;20041;-59
2023/10/23 05:37:57;;;;;;;2.00;0.80;;;;;;;;;;5035890;28;20034;-60
2023/10/23 05:40:23;;;;;;;1.80;0.70;;;;;;;;;;5036280;28;20045;-60
2023/10/23 05:42:48;;;;;;;2.08;0.98;;;;;;;;;;5033290;28;20099;-59
2023/10/23 05:45:14;;;;;;;2.15;0.90;;;;;;;;;;5033465;28;20036;-59
2023/10/23 05:47:39;;;;;;;1.98;0.80;;;;;;;;;;5038664;28;20041;-58
2023/10/23 05:50:05;;;;;;;2.88;1.20;;;;;;;;;;5037861;28;20122;-59
2023/10/23 05:52:31;;;;;;;3.03;0.93;;;;;;;;;;5035563;28;20132;-59
2023/10/23 05:54:56;;;;;;;1.98;0.90;;;;;;;;;;5033738;28;20037;-59
2023/10/23 05:57:22;;;;;;;2.00;0.88;;;;;;;;;;5035094;28;20034;-59
2023/10/23 05:59:48;;;;;;;1.70;0.73;;;;;;;;;;5037385;28;20094;-59
2023/10/23 06:02:13;;;;;;;1.92;0.85;;;;;;;;;;5033103;28;20038;-58
2023/10/23 06:04:41;;;;;;;2.05;0.90;;;;;;;;;;5034738;28;20033;-57
2023/10/23 06:07:07;;;;;;;1.60;0.70;;;;;;;;;;5035149;28;20099;-57
2023/10/23 06:09:33;;;;;;;2.00;0.80;;;;;;;;;;5035498;28;20453;-57
2023/10/23 06:11:58;;;;;;;3.40;1.10;;;;;;;;;;5033793;28;20041;-58
2023/10/23 06:14:24;;;;;;;1.75;0.80;;;;;;;;;;5036110;28;20049;-58
2023/10/23 06:16:50;;;;;;;3.33;0.80;;;;;;;;;;5037672;28;20041;-57
2023/10/23 06:19:16;;;;;;;1.65;0.73;;;;;;;;;;5037575;28;20063;-57
2023/10/23 06:21:42;;;;;;;2.80;0.80;;;;;;;;;;5032495;28;20061;-57
2023/10/23 06:24:08;;;;;;;1.95;0.80;;;;;;;;;;5034238;28;20037;-58
2023/10/23 06:26:33;;;;;;;2.05;0.93;;;;;;;;;;5035799;28;20049;-58
2023/10/23 06:28:59;;;;;;;1.60;0.77;;;;;;;;;;5033552;28;20100;-57
2023/10/23 06:31:24;;;;;;;1.80;0.70;;;;;;;;;;5033972;28;20060;-58
2023/10/23 06:33:51;;;;;;;1.85;0.82;;;;;;;;;;5034018;28;20040;-59
2023/10/23 06:36:17;;;;;;;6.45;0.90;;;;;;;;;;5035062;28;20068;-59
2023/10/23 06:38:42;;;;;;;2.17;0.88;;;;;;;;;;5034810;28;20033;-59
2023/10/23 06:41:08;;;;;;;1.83;0.90;;;;;;;;;;5037104;28;20126;-59
2023/10/23 06:43:35;;;;;;;1.73;0.82;;;;;;;;;;5035234;28;20041;-58
2023/10/23 06:46:01;;;;;;;1.75;0.80;;;;;;;;;;5034965;28;20162;-57
2023/10/23 06:48:27;;;;;;;2.40;1.00;;;;;;;;;;5033529;28;20700;-59
2023/10/23 06:50:54;;;;;;;2.22;0.88;;;;;;;;;;5035462;28;20070;-55
2023/10/23 06:53:19;;;;;;;2.22;0.90;;;;;;;;;;5034496;28;20657;-56
2023/10/23 06:55:48;;;;;;;4.30;0.90;;;;;;;;;;5031417;28;20063;-57
2023/10/23 06:58:14;;;;;;;1.83;0.70;;;;;;;;;;5034021;28;20546;-58
2023/10/23 07:00:40;;;;;;;1.70;0.70;;;;;;;;;;5035139;28;20210;-58
2023/10/23 07:03:05;;;;;;;2.67;1.02;;;;;;;;;;5035960;28;20060;-57
2023/10/23 07:05:31;;;;;;;2.28;0.93;;;;;;;;;;5035420;28;20138;-57
2023/10/23 07:07:56;;;;;;;1.85;0.85;;;;;;;;;;5035791;28;20029;-57
2023/10/23 07:10:22;;;;;;;1.77;0.80;;;;;;;;;;5034881;28;20029;-57
2023/10/23 07:12:47;;;;;;;1.92;0.90;;;;;;;;;;5034014;28;20096;-57
2023/10/23 07:15:13;;;;;;;1.58;0.70;;;;;;;;;;5034914;28;20502;-58
2023/10/23 07:17:39;;;;;;;1.70;0.70;;;;;;;;;;5033287;28;20669;-57
2023/10/23 07:20:06;;;;;;;1.95;0.90;;;;;;;;;;5031645;28;20110;-58
2023/10/23 07:22:32;;;;;;;4.35;0.88;;;;;;;;;;5033147;28;20068;-56
2023/10/23 07:24:59;;;;;;;1.75;0.70;;;;;;;;;;5030470;28;20061;-59
2023/10/23 07:27:25;;;;;;;1.80;0.70;;;;;;;;;;5032465;28;20060;-57
2023/10/23 07:29:51;;;;;;;2.97;0.73;;;;;;;;;;5033091;28;20057;-59
2023/10/23 07:32:17;;;;;;;3.38;0.93;;;;;;;;;;5035274;28;20610;-59
2023/10/23 07:34:43;;;;;;;1.77;0.73;;;;;;;;;;5033534;28;20041;-59
2023/10/23 07:37:09;;;;;;;1.92;0.95;;;;;;;;;;5035713;28;20037;-59
2023/10/23 07:39:35;;;;;;;2.35;0.85;;;;;;;;;;5030745;28;20130;-59
2023/10/23 07:42:01;;;;;;;1.80;0.70;;;;;;;;;;5034479;28;20510;-59
2023/10/23 07:44:26;;;;;;;3.13;1.10;;;;;;;;;;5033480;28;20033;-58
2023/10/23 07:46:52;;;;;;;2.20;0.98;;;;;;;;;;5032592;28;20075;-58
2023/10/23 07:49:17;;;;;;;2.38;1.10;;;;;;;;;;5034403;28;20112;-59
2023/10/23 07:51:44;;;;;;;2.13;0.80;;;;;;;;;;5032321;28;20038;-58
2023/10/23 07:54:10;;;;;;;2.20;0.90;;;;;;;;;;5031603;28;20092;-59
2023/10/23 07:56:35;;;;;;;2.63;0.90;;;;;;;;;;5032079;28;20037;-59
2023/10/23 07:59:01;;;;;;;2.92;1.00;;;;;;;;;;5033236;28;20118;-57
2023/10/23 08:01:27;;;;;;;2.00;1.00;;;;;;;;;;5032806;28;20192;-59
2023/10/23 08:03:52;;;;;;;3.65;1.00;;;;;;;;;;5032960;28;20565;-59
2023/10/23 08:06:18;;;;;;;1.95;0.90;;;;;;;;;;5032274;28;20042;-59
2023/10/23 08:08:44;;;;;;;2.42;1.00;;;;;;;;;;5033779;28;20025;-59
2023/10/23 08:11:10;;;;;;;2.50;1.10;;;;;;;;;;5034481;28;20069;-57
2023/10/23 08:13:36;;;;;;;2.25;0.93;;;;;;;;;;5034483;28;20066;-59
2023/10/23 08:16:05;;;;;;;2.25;1.02;;;;;;;;;;5038030;28;20044;-60
2023/10/23 08:18:32;;;;;;;1.90;1.00;;;;;;;;;;5038080;28;20077;-58
2023/10/23 08:20:57;;;;;;;2.40;0.90;;;;;;;;;;5031901;28;20061;-59
2023/10/23 08:23:23;;;;;;;2.80;1.13;;;;;;;;;;5033131;28;20090;-59
2023/10/23 08:25:48;;;;;;;3.55;1.10;;;;;;;;;;5034763;28;20423;-59
2023/10/23 08:28:14;;;;;;;2.10;1.00;;;;;;;;;;5037023;28;20044;-58
2023/10/23 08:30:40;;;;;;;2.78;1.00;;;;;;;;;;5036028;28;20079;-59
2023/10/23 08:33:05;;;;;;;3.25;1.20;;;;;;;;;;5035154;28;20379;-58
2023/10/23 08:35:32;;;;;;;2.63;1.00;;;;;;;;;;5035564;28;20111;-57
2023/10/23 08:37:57;;;;;;;2.83;1.20;;;;;;;;;;5038087;28;20057;-58
2023/10/23 08:40:23;;;;;;;2.95;1.10;;;;;;;;;;5037603;28;20044;-58
2023/10/23 08:42:49;;;;;;;2.25;1.20;;;;;;;;;;5035875;28;20029;-58
2023/10/23 08:45:15;;;;;;;2.67;1.10;;;;;;;;;;5036471;28;20524;-57
2023/10/23 08:47:40;;;;;;;2.75;1.00;;;;;;;;;;5033614;28;20053;-58
2023/10/23 08:50:06;;;;;;;4.30;1.20;;;;;;;;;;5034165;28;20079;-59
2023/10/23 08:52:34;;;;;;;2.22;0.90;;;;;;;;;;5037378;28;20488;-59
2023/10/23 08:55:02;;;;;;;2.30;1.00;;;;;;;;;;5038428;28;20773;-58
2023/10/23 08:57:29;;;;;;;1.98;0.90;;;;;;;;;;5033894;28;20069;-59
2023/10/23 08:59:55;;;;;;;3.78;1.15;;;;;;;;;;5036553;28;20056;-60
2023/10/23 09:02:21;;;;;;;2.58;0.93;;;;;;;;;;5036630;28;20038;-57
2023/10/23 09:04:46;;;;;;;2.58;1.10;;;;;;;;;;5035350;28;20045;-57
2023/10/23 09:07:12;;;;;;;2.83;1.10;;;;;;;;;;5035525;28;20499;-59
2023/10/23 09:09:38;;;;;;;2.67;1.02;;;;;;;;;;5034652;28;20099;-59
2023/10/23 09:12:04;;;;;;;1.67;0.73;;;;;;;;;;5035772;28;20045;-58
2023/10/23 09:14:35;;;;;;;2.08;1.00;;;;;;;;;;5035352;28;20071;-60
2023/10/23 09:17:00;;;;;;;2.45;1.15;;;;;;;;;;5037709;28;20076;-59
2023/10/23 09:19:29;;;;;;;2.78;1.20;;;;;;;;;;5036514;28;20025;-57
2023/10/23 09:21:55;;;;;;;2.65;1.17;;;;;;;;;;5034102;28;20065;-59
2023/10/23 09:24:21;;;;;;;6.50;1.00;;;;;;;;;;5037453;28;20029;-59
2023/10/23 09:26:48;;;;;;;3.22;1.10;;;;;;;;;;5035521;28;20061;-58
2023/10/23 09:29:13;;;;;;;2.65;1.10;;;;;;;;;;5034699;28;20585;-59
2023/10/23 09:31:40;;;;;;;2.20;1.00;;;;;;;;;;5037121;28;20041;-60
2023/10/23 09:34:07;;;;;;;1.85;0.90;;;;;;;;;;5038031;28;20059;-58
2023/10/23 09:36:33;;;;;;;2.95;1.10;;;;;;;;;;5034292;28;20110;-57
2023/10/23 09:38:59;;;;;;;1.98;0.73;;;;;;;;;;5036050;28;20801;-58
2023/10/23 09:41:25;;;;;;;2.10;0.90;;;;;;;;;;5034959;28;20629;-60
2023/10/23 09:43:52;;;;;;;2.08;0.82;;;;;;;;;;5033808;28;20061;-59
2023/10/23 09:46:18;;;;;;;2.38;0.88;;;;;;;;;;5038200;28;20611;-58
2023/10/23 09:48:44;;;;;;;1.40;0.68;;;;;;;;;;5035055;28;20075;-59
2023/10/23 09:51:11;;;;;;;2.08;0.90;;;;;;;;;;5035138;28;20052;-60
2023/10/23 09:53:37;;;;;;;1.90;0.85;;;;;;;;;;5034840;28;20068;-57
2023/10/23 09:56:05;;;;;;;2.00;0.90;;;;;;;;;;5036577;28;20118;-57
2023/10/23 09:58:32;;;;;;;2.33;1.00;;;;;;;;;;5034867;28;20025;-57
2023/10/23 10:00:59;;;;;;;2.65;0.90;;;;;;;;;;5035155;28;20059;-56
2023/10/23 10:03:27;;;;;;;1.98;0.90;;;;;;;;;;5034914;28;20069;-57
2023/10/23 10:06:03;;;;;;;2.60;1.05;;;;;;;;;;5033596;28;20064;-58
2023/10/23 10:08:32;;;;;;;1.90;0.93;;;;;;;;;;5034155;28;20451;-59
2023/10/23 10:10:58;;;;;;;2.20;0.90;;;;;;;;;;5033999;28;20069;-58
2023/10/23 10:13:26;;;;;;;2.13;0.88;;;;;;;;;;5031786;28;20092;-57
2023/10/23 10:15:52;;;;;;;3.00;1.05;;;;;;;;;;5036486;28;20059;-59
2023/10/23 10:18:18;;;;;;;1.55;0.70;;;;;;;;;;5034984;28;20052;-57
2023/10/23 10:20:52;;;;;;;2.38;1.05;;;;;;;;;;5035231;28;20052;-58
2023/10/23 10:23:18;;;;;;;1.98;0.90;;;;;;;;;;5034836;28;20068;-58
2023/10/23 10:25:45;;;;;;;2.10;1.00;;;;;;;;;;5035168;28;20041;-58
2023/10/23 10:28:12;;;;;;;2.50;1.05;;;;;;;;;;5034873;28;20065;-59
2023/10/23 10:30:41;;;;;;;3.13;1.27;;;;;;;;;;5032182;28;20084;-58
2023/10/23 10:33:07;;;;;;;2.53;0.93;;;;;;;;;;5034425;28;20076;-58
2023/10/23 10:35:34;;;;;;;2.00;0.90;;;;;;;;;;5035420;28;20126;-58
2023/10/23 10:38:00;;;;;;;2.88;1.05;;;;;;;;;;5033697;28;20060;-59
2023/10/23 10:40:25;;;;;;;2.13;1.00;;;;;;;;;;5033674;28;20088;-56
2023/10/23 10:42:51;;;;;;;3.10;0.90;;;;;;;;;;5032794;28;20037;-57
2023/10/23 10:45:20;;;;;;;1.83;0.82;;;;;;;;;;5035553;28;20036;-58
2023/10/23 10:47:45;;;;;;;2.55;0.88;;;;;;;;;;5035989;28;20122;-59
2023/10/23 10:50:11;;;;;;;2.00;0.90;;;;;;;;;;5032573;28;20460;-58
2023/10/23 10:52:38;;;;;;;2.10;0.90;;;;;;;;;;5034716;28;20041;-57
2023/10/23 10:55:04;;;;;;;2.90;1.02;;;;;;;;;;5034991;28;20068;-59
2023/10/23 10:57:30;;;;;;;1.95;0.90;;;;;;;;;;5034921;28;20060;-58
2023/10/23 10:59:57;;;;;;;2.05;0.98;;;;;;;;;;5032749;28;20068;-58
2023/10/23 11:02:23;;;;;;;2.28;1.08;;;;;;;;;;5032434;28;20072;-57
2023/10/23 11:04:48;;;;;;;2.15;0.90;;;;;;;;;;5033865;28;20057;-58
2023/10/23 11:07:15;;;;;;;1.77;0.90;;;;;;;;;;5034589;28;20498;-57
2023/10/23 11:09:41;;;;;;;1.65;0.80;;;;;;;;;;5031486;28;20687;-59
2023/10/23 11:12:07;;;;;;;1.70;0.75;;;;;;;;;;5034539;28;20073;-56
2023/10/23 11:14:32;;;;;;;2.33;0.90;;;;;;;;;;5033039;28;20596;-57
2023/10/23 11:16:58;;;;;;;2.67;1.00;;;;;;;;;;5037011;28;20041;-58
2023/10/23 11:19:24;;;;;;;1.98;0.70;;;;;;;;;;5033574;28;20052;-59
2023/10/23 11:21:49;;;;;;;1.70;0.60;;;;;;;;;;5035662;28;20455;-61
2023/10/23 11:24:15;;;;;;;1.42;0.77;;;;;;;;;;5035061;28;20103;-60
2023/10/23 11:26:40;;;;;;;2.28;0.90;;;;;;;;;;5031331;28;20044;-58
2023/10/23 11:29:06;;;;;;;2.03;0.77;;;;;;;;;;5034780;28;20036;-59
2023/10/23 11:31:32;;;;;;;2.00;0.90;;;;;;;;;;5034222;28;20469;-58
2023/10/23 11:33:58;;;;;;;2.25;0.90;;;;;;;;;;5032818;28;20111;-59
2023/10/23 11:36:27;;;;;;;1.60;0.70;;;;;;;;;;5032097;28;20069;-60
2023/10/23 11:38:52;;;;;;;3.05;0.80;;;;;;;;;;5036100;28;20115;-59
2023/10/23 11:41:20;;;;;;;1.90;0.90;;;;;;;;;;5033777;28;20041;-58
2023/10/23 11:43:45;;;;;;;2.55;0.90;;;;;;;;;;5035790;28;20064;-58
2023/10/23 11:46:11;;;;;;;1.77;0.70;;;;;;;;;;5037468;28;20079;-59
2023/10/23 11:48:37;;;;;;;2.35;1.00;;;;;;;;;;5037100;28;20041;-57
2023/10/23 11:51:03;;;;;;;1.80;0.80;;;;;;;;;;5036062;28;20029;-59
2023/10/23 11:53:32;;;;;;;1.92;0.80;;;;;;;;;;5038784;28;20061;-58
2023/10/23 11:55:58;;;;;;;1.55;0.70;;;;;;;;;;5036381;28;20061;-59
2023/10/23 11:58:27;;;;;;;2.92;0.80;;;;;;;;;;5038941;28;20091;-61
2023/10/23 12:00:52;;;;;;;3.75;0.90;;;;;;;;;;5040410;28;20559;-60
2023/10/23 12:03:18;;;;;;;4.15;0.80;;;;;;;;;;5038121;28;20037;-59
2023/10/23 12:05:44;;;;;;;1.55;0.70;;;;;;;;;;5036570;28;20079;-59
2023/10/23 12:08:10;;;;;;;2.10;0.90;;;;;;;;;;5035701;28;20068;-56
2023/10/23 12:10:38;;;;;;;1.52;0.73;;;;;;;;;;5038816;28;20577;-58
2023/10/23 12:13:03;;;;;;;2.22;0.80;;;;;;;;;;5039864;28;20064;-58
2023/10/23 12:15:29;;;;;;;1.92;0.90;;;;;;;;;;5037138;28;20131;-59
2023/10/23 12:18:02;;;;;;;2.00;0.80;;;;;;;;;;5040405;28;20032;-60
2023/10/23 12:20:29;;;;;;;2.00;1.00;;;;;;;;;;5037941;28;20103;-58
2023/10/23 12:22:55;;;;;;;1.90;0.80;;;;;;;;;;5036756;28;20087;-60
2023/10/23 12:25:20;;;;;;;1.63;0.70;;;;;;;;;;5039939;28;20037;-58
2023/10/23 12:27:46;;;;;;;2.00;0.70;;;;;;;;;;5036998;28;20037;-59
2023/10/23 12:30:14;;;;;;;1.80;0.80;;;;;;;;;;5036048;28;20033;-59
2023/10/23 12:32:40;;;;;;;2.70;0.75;;;;;;;;;;5037328;28;20064;-58
2023/10/23 12:35:07;;;;;;;2.10;0.90;;;;;;;;;;5037041;28;20040;-60
2023/10/23 12:37:36;;;;;;;2.65;0.82;;;;;;;;;;5039382;28;20068;-59
2023/10/23 12:40:02;;;;;;;1.73;0.63;;;;;;;;;;5037760;28;20069;-58
2023/10/23 12:42:31;;;;;;;1.90;0.80;;;;;;;;;;5035819;28;20147;-59
2023/10/23 12:44:56;;;;;;;2.28;0.85;;;;;;;;;;5035990;28;20513;-59
2023/10/23 12:47:24;;;;;;;2.75;0.90;;;;;;;;;;5040118;28;20043;-59
2023/10/23 12:49:49;;;;;;;1.52;0.70;;;;;;;;;;5037394;28;20072;-59
2023/10/23 12:52:15;;;;;;;2.00;0.90;;;;;;;;;;5038830;28;20514;-59
2023/10/23 12:54:41;;;;;;;3.20;0.80;;;;;;;;;;5035514;28;20060;-58
2023/10/23 12:57:06;;;;;;;2.00;0.80;;;;;;;;;;5034615;28;20079;-59
2023/10/23 12:59:32;;;;;;;1.63;0.70;;;;;;;;;;5036624;28;20033;-59
2023/10/23 13:01:58;;;;;;;1.70;0.70;;;;;;;;;;5035991;28;20100;-58
2023/10/23 13:04:23;;;;;;;1.70;0.70;;;;;;;;;;5035975;28;20184;-58
2023/10/23 13:06:49;;;;;;;1.70;0.77;;;;;;;;;;5030216;28;20037;-57
2023/10/23 13:09:17;;;;;;;2.30;0.90;;;;;;;;;;5030482;28;20041;-59
2023/10/23 13:11:43;;;;;;;2.78;0.90;;;;;;;;;;5029515;28;20049;-57
2023/10/23 13:14:09;;;;;;;2.05;0.70;;;;;;;;;;5016174;28;20080;-59
2023/10/23 13:16:35;;;;;;;1.60;0.70;;;;;;;;;;5030524;28;20037;-59
2023/10/23 13:19:00;;;;;;;1.80;0.80;;;;;;;;;;5031478;28;20411;-57
2023/10/23 13:21:26;;;;;;;1.15;0.52;;;;;;;;;;5031686;28;20092;-58
2023/10/23 13:23:52;;;;;;;2.10;0.73;;;;;;;;;;5031940;28;20037;-59
2023/10/23 13:26:17;;;;;;;1.70;0.70;;;;;;;;;;5030148;28;20045;-59
2023/10/23 13:28:43;;;;;;;1.85;0.80;;;;;;;;;;5031223;28;20123;-60
2023/10/23 13:31:09;;;;;;;1.58;0.60;;;;;;;;;;5032457;28;20155;-59
2023/10/23 13:33:35;;;;;;;1.77;0.70;;;;;;;;;;5030574;28;20092;-58
2023/10/23 13:36:00;;;;;;;1.67;0.73;;;;;;;;;;5031813;28;20045;-57
2023/10/23 13:38:26;;;;;;;1.58;0.65;;;;;;;;;;5031604;28;20033;-58
2023/10/23 13:40:55;;;;;;;1.30;0.60;;;;;;;;;;5028842;28;20041;-58
2023/10/23 13:43:21;;;;;;;1.70;0.73;;;;;;;;;;5031359;28;20057;-59
2023/10/23 13:45:46;;;;;;;1.85;0.63;;;;;;;;;;5029518;28;20064;-60
2023/10/23 13:48:12;;;;;;;1.75;0.70;;;;;;;;;;5030511;28;20092;-58
2023/10/23 13:50:37;;;;;;;2.20;0.80;;;;;;;;;;5029942;28;20092;-58
2023/10/23 13:53:03;;;;;;;1.70;0.70;;;;;;;;;;5031543;28;20037;-59
2023/10/23 13:55:29;;;;;;;1.80;0.65;;;;;;;;;;5029252;28;20045;-63
2023/10/23 13:57:54;;;;;;;1.70;0.75;;;;;;;;;;5028915;28;20044;-59
2023/10/23 14:00:20;;;;;;;1.65;0.70;;;;;;;;;;5030243;28;20069;-57
2023/10/23 14:02:45;;;;;;;1.80;0.70;;;;;;;;;;5036130;28;20070;-59
2023/10/23 14:05:11;;;;;;;1.63;0.60;;;;;;;;;;5038480;28;20076;-59
2023/10/23 14:07:36;;;;;;;2.28;0.88;;;;;;;;;;5033890;28;20586;-59
2023/10/23 14:10:02;;;;;;;4.07;0.60;;;;;;;;;;5033342;28;20045;-58
2023/10/23 14:12:28;;;;;;;1.48;0.60;;;;;;;;;;5036137;28;20025;-59
2023/10/23 14:14:53;;;;;;;2.05;0.80;;;;;;;;;;5033467;28;20045;-58
2023/10/23 14:17:19;;;;;;;2.25;0.80;;;;;;;;;;5036634;28;20493;-60
2023/10/23 14:19:45;;;;;;;2.00;0.85;;;;;;;;;;5032553;28;20095;-59
2023/10/23 14:22:10;;;;;;;1.80;0.75;;;;;;;;;;5037050;28;20041;-59
2023/10/23 14:24:36;;;;;;;2.05;0.75;;;;;;;;;;5033107;28;20041;-58
2023/10/23 14:27:02;;;;;;;2.15;0.77;;;;;;;;;;5037219;28;20102;-59
2023/10/23 14:29:28;;;;;;;1.45;0.63;;;;;;;;;;5035521;28;20103;-60
2023/10/23 14:31:53;;;;;;;2.17;0.80;;;;;;;;;;5033440;28;20572;-60
2023/10/23 14:34:19;;;;;;;1.23;0.60;;;;;;;;;;5029975;28;20037;-58
2023/10/23 14:36:44;;;;;;;1.20;0.50;;;;;;;;;;5036962;28;20033;-60